sensor_id;sensor_type;location;lat;lon;timestamp;P1;durP1;ratioP1;P2;durP2;ratioP2
21060;SDS011;10689;50.836;3.266;2022-11-04T00:01:43;4.70;;;1.37;;
21060;SDS011;10689;50.836;3.266;2022-11-04T00:04:11;2.67;;;1.33;;
21060;SDS011;10689;50.836;3.266;2022-11-04T00:06:39;4.20;;;1.80;;
21060;SDS011;10689;50.836;3.266;2022-11-04T00:09:06;3.50;;;1.80;;
21060;SDS011;10689;50.836;3.266;2022-11-04T00:11:33;3.83;;;1.87;;
21060;SDS011;10689;50.836;3.266;2022-11-04T00:14:17;2.17;;;1.53;;
21060;SDS011;10689;50.836;3.266;2022-11-04T00:16:44;4.70;;;1.73;;
21060;SDS011;10689;50.836;3.266;2022-11-04T00:19:28;4.17;;;1.90;;
21060;SDS011;10689;50.836;3.266;2022-11-04T00:22:14;5.27;;;2.17;;
21060;SDS011;10689;50.836;3.266;2022-11-04T00:24:58;5.83;;;1.73;;
21060;SDS011;10689;50.836;3.266;2022-11-04T00:27:43;3.87;;;2.10;;
21060;SDS011;10689;50.836;3.266;2022-11-04T00:30:27;3.63;;;1.87;;
21060;SDS011;10689;50.836;3.266;2022-11-04T00:32:53;6.10;;;2.50;;
21060;SDS011;10689;50.836;3.266;2022-11-04T00:35:38;3.57;;;1.90;;
21060;SDS011;10689;50.836;3.266;2022-11-04T00:38:03;3.27;;;2.57;;
21060;SDS011;10689;50.836;3.266;2022-11-04T00:40:29;2.73;;;1.77;;
21060;SDS011;10689;50.836;3.266;2022-11-04T00:42:55;7.00;;;2.30;;
21060;SDS011;10689;50.836;3.266;2022-11-04T00:45:20;3.93;;;2.03;;
21060;SDS011;10689;50.836;3.266;2022-11-04T00:47:46;4.10;;;1.83;;
21060;SDS011;10689;50.836;3.266;2022-11-04T00:50:12;5.60;;;2.07;;
21060;SDS011;10689;50.836;3.266;2022-11-04T00:52:37;4.17;;;2.57;;
21060;SDS011;10689;50.836;3.266;2022-11-04T00:55:03;4.53;;;2.30;;
21060;SDS011;10689;50.836;3.266;2022-11-04T00:57:29;2.00;;;1.60;;
21060;SDS011;10689;50.836;3.266;2022-11-04T00:59:55;10.10;;;2.77;;
21060;SDS011;10689;50.836;3.266;2022-11-04T01:02:21;5.60;;;1.77;;
21060;SDS011;10689;50.836;3.266;2022-11-04T01:04:47;4.50;;;1.60;;
21060;SDS011;10689;50.836;3.266;2022-11-04T01:07:13;2.37;;;1.67;;
21060;SDS011;10689;50.836;3.266;2022-11-04T01:09:39;2.07;;;1.73;;
21060;SDS011;10689;50.836;3.266;2022-11-04T01:12:05;4.47;;;1.60;;
21060;SDS011;10689;50.836;3.266;2022-11-04T01:14:30;3.23;;;1.53;;
21060;SDS011;10689;50.836;3.266;2022-11-04T01:16:56;4.87;;;2.30;;
21060;SDS011;10689;50.836;3.266;2022-11-04T01:19:22;6.00;;;1.73;;
21060;SDS011;10689;50.836;3.266;2022-11-04T01:21:54;12.77;;;2.57;;
21060;SDS011;10689;50.836;3.266;2022-11-04T01:24:19;2.90;;;1.50;;
21060;SDS011;10689;50.836;3.266;2022-11-04T01:26:45;3.47;;;1.93;;
21060;SDS011;10689;50.836;3.266;2022-11-04T01:29:11;3.90;;;1.90;;
21060;SDS011;10689;50.836;3.266;2022-11-04T01:31:36;4.90;;;1.83;;
21060;SDS011;10689;50.836;3.266;2022-11-04T01:34:03;7.17;;;2.23;;
21060;SDS011;10689;50.836;3.266;2022-11-04T01:36:29;4.13;;;1.77;;
21060;SDS011;10689;50.836;3.266;2022-11-04T01:38:55;5.30;;;1.97;;
21060;SDS011;10689;50.836;3.266;2022-11-04T01:41:29;6.53;;;1.93;;
21060;SDS011;10689;50.836;3.266;2022-11-04T01:43:57;6.87;;;1.57;;
21060;SDS011;10689;50.836;3.266;2022-11-04T01:46:44;8.17;;;2.13;;
21060;SDS011;10689;50.836;3.266;2022-11-04T01:49:18;9.67;;;2.43;;
21060;SDS011;10689;50.836;3.266;2022-11-04T01:51:50;7.57;;;2.20;;
21060;SDS011;10689;50.836;3.266;2022-11-04T01:54:37;3.37;;;2.10;;
21060;SDS011;10689;50.836;3.266;2022-11-04T01:57:06;3.60;;;2.03;;
21060;SDS011;10689;50.836;3.266;2022-11-04T01:59:36;5.47;;;2.23;;
21060;SDS011;10689;50.836;3.266;2022-11-04T02:02:05;9.47;;;2.33;;
21060;SDS011;10689;50.836;3.266;2022-11-04T02:04:31;8.20;;;2.43;;
21060;SDS011;10689;50.836;3.266;2022-11-04T02:06:58;7.00;;;1.90;;
21060;SDS011;10689;50.836;3.266;2022-11-04T02:09:26;4.57;;;1.90;;
21060;SDS011;10689;50.836;3.266;2022-11-04T02:11:54;6.67;;;1.73;;
21060;SDS011;10689;50.836;3.266;2022-11-04T02:14:39;5.73;;;1.70;;
21060;SDS011;10689;50.836;3.266;2022-11-04T02:22:43;5.73;;;2.23;;
21060;SDS011;10689;50.836;3.266;2022-11-04T02:37:12;4.03;;;2.20;;
21060;SDS011;10689;50.836;3.266;2022-11-04T02:42:36;5.57;;;2.43;;
21060;SDS011;10689;50.836;3.266;2022-11-04T02:45:12;8.90;;;2.20;;
21060;SDS011;10689;50.836;3.266;2022-11-04T02:47:44;7.73;;;2.43;;
21060;SDS011;10689;50.836;3.266;2022-11-04T02:52:58;5.40;;;2.40;;
21060;SDS011;10689;50.836;3.266;2022-11-04T02:55:41;2.67;;;1.90;;
21060;SDS011;10689;50.836;3.266;2022-11-04T02:58:15;6.93;;;2.60;;
21060;SDS011;10689;50.836;3.266;2022-11-04T03:00:45;6.60;;;1.93;;
21060;SDS011;10689;50.836;3.266;2022-11-04T03:03:14;4.80;;;2.43;;
21060;SDS011;10689;50.836;3.266;2022-11-04T03:05:46;6.77;;;2.70;;
21060;SDS011;10689;50.836;3.266;2022-11-04T03:08:20;6.90;;;2.37;;
21060;SDS011;10689;50.836;3.266;2022-11-04T03:10:59;4.77;;;2.20;;
21060;SDS011;10689;50.836;3.266;2022-11-04T03:13:44;7.73;;;2.33;;
21060;SDS011;10689;50.836;3.266;2022-11-04T03:16:19;8.87;;;2.33;;
21060;SDS011;10689;50.836;3.266;2022-11-04T03:19:01;7.70;;;2.03;;
21060;SDS011;10689;50.836;3.266;2022-11-04T03:21:36;8.53;;;2.70;;
21060;SDS011;10689;50.836;3.266;2022-11-04T03:24:10;4.50;;;2.17;;
21060;SDS011;10689;50.836;3.266;2022-11-04T03:26:40;5.77;;;2.30;;
21060;SDS011;10689;50.836;3.266;2022-11-04T03:29:25;10.00;;;2.73;;
21060;SDS011;10689;50.836;3.266;2022-11-04T03:35:11;7.03;;;2.43;;
21060;SDS011;10689;50.836;3.266;2022-11-04T03:37:39;6.70;;;2.30;;
21060;SDS011;10689;50.836;3.266;2022-11-04T03:40:05;4.30;;;1.97;;
21060;SDS011;10689;50.836;3.266;2022-11-04T03:42:31;4.97;;;2.20;;
21060;SDS011;10689;50.836;3.266;2022-11-04T03:45:02;6.03;;;2.33;;
21060;SDS011;10689;50.836;3.266;2022-11-04T03:47:28;7.07;;;2.43;;
21060;SDS011;10689;50.836;3.266;2022-11-04T03:50:16;7.80;;;2.90;;
21060;SDS011;10689;50.836;3.266;2022-11-04T03:52:52;6.03;;;2.40;;
21060;SDS011;10689;50.836;3.266;2022-11-04T03:55:18;4.47;;;2.30;;
21060;SDS011;10689;50.836;3.266;2022-11-04T03:58:02;3.37;;;1.83;;
21060;SDS011;10689;50.836;3.266;2022-11-04T04:00:35;4.73;;;2.07;;
21060;SDS011;10689;50.836;3.266;2022-11-04T04:03:09;6.30;;;2.47;;
21060;SDS011;10689;50.836;3.266;2022-11-04T04:08:48;6.57;;;2.70;;
21060;SDS011;10689;50.836;3.266;2022-11-04T04:12:21;6.23;;;2.70;;
21060;SDS011;10689;50.836;3.266;2022-11-04T04:14:30;5.83;;;2.60;;
21060;SDS011;10689;50.836;3.266;2022-11-04T04:19:44;6.50;;;2.27;;
21060;SDS011;10689;50.836;3.266;2022-11-04T04:22:17;8.67;;;2.13;;
21060;SDS011;10689;50.836;3.266;2022-11-04T04:24:47;7.23;;;2.47;;
21060;SDS011;10689;50.836;3.266;2022-11-04T04:27:34;6.33;;;3.03;;
21060;SDS011;10689;50.836;3.266;2022-11-04T04:30:04;5.73;;;2.60;;
21060;SDS011;10689;50.836;3.266;2022-11-04T04:32:49;4.93;;;2.10;;
21060;SDS011;10689;50.836;3.266;2022-11-04T04:35:26;5.13;;;2.50;;
21060;SDS011;10689;50.836;3.266;2022-11-04T04:41:29;4.70;;;2.03;;
21060;SDS011;10689;50.836;3.266;2022-11-04T04:44:17;4.30;;;2.50;;
21060;SDS011;10689;50.836;3.266;2022-11-04T04:47:08;6.27;;;1.97;;
21060;SDS011;10689;50.836;3.266;2022-11-04T04:49:36;4.30;;;2.00;;
21060;SDS011;10689;50.836;3.266;2022-11-04T04:52:13;6.00;;;2.03;;
21060;SDS011;10689;50.836;3.266;2022-11-04T04:54:38;9.87;;;3.30;;
21060;SDS011;10689;50.836;3.266;2022-11-04T04:57:04;4.73;;;2.50;;
21060;SDS011;10689;50.836;3.266;2022-11-04T04:59:30;5.90;;;2.33;;
21060;SDS011;10689;50.836;3.266;2022-11-04T05:01:55;13.00;;;3.07;;
21060;SDS011;10689;50.836;3.266;2022-11-04T05:04:22;5.93;;;2.57;;
21060;SDS011;10689;50.836;3.266;2022-11-04T05:06:47;4.53;;;2.27;;
21060;SDS011;10689;50.836;3.266;2022-11-04T05:09:13;6.27;;;2.37;;
21060;SDS011;10689;50.836;3.266;2022-11-04T05:11:39;5.43;;;2.73;;
21060;SDS011;10689;50.836;3.266;2022-11-04T05:14:05;5.53;;;3.03;;
21060;SDS011;10689;50.836;3.266;2022-11-04T05:16:30;9.47;;;3.00;;
21060;SDS011;10689;50.836;3.266;2022-11-04T05:18:56;7.63;;;2.37;;
21060;SDS011;10689;50.836;3.266;2022-11-04T05:21:22;3.87;;;2.57;;
21060;SDS011;10689;50.836;3.266;2022-11-04T05:23:47;6.07;;;2.57;;
21060;SDS011;10689;50.836;3.266;2022-11-04T05:26:13;4.77;;;2.00;;
21060;SDS011;10689;50.836;3.266;2022-11-04T05:28:39;4.80;;;2.80;;
21060;SDS011;10689;50.836;3.266;2022-11-04T05:31:05;10.03;;;2.60;;
21060;SDS011;10689;50.836;3.266;2022-11-04T05:33:31;7.00;;;2.80;;
21060;SDS011;10689;50.836;3.266;2022-11-04T05:38:33;6.20;;;2.13;;
21060;SDS011;10689;50.836;3.266;2022-11-04T05:40:59;6.40;;;2.50;;
21060;SDS011;10689;50.836;3.266;2022-11-04T05:43:25;9.67;;;2.67;;
21060;SDS011;10689;50.836;3.266;2022-11-04T05:45:51;4.43;;;2.70;;
21060;SDS011;10689;50.836;3.266;2022-11-04T05:48:17;5.40;;;2.40;;
21060;SDS011;10689;50.836;3.266;2022-11-04T05:50:42;5.00;;;2.30;;
21060;SDS011;10689;50.836;3.266;2022-11-04T05:53:08;5.30;;;2.57;;
21060;SDS011;10689;50.836;3.266;2022-11-04T05:55:34;7.10;;;2.67;;
21060;SDS011;10689;50.836;3.266;2022-11-04T05:58:00;5.60;;;2.90;;
21060;SDS011;10689;50.836;3.266;2022-11-04T06:00:26;5.73;;;3.20;;
21060;SDS011;10689;50.836;3.266;2022-11-04T06:02:53;7.90;;;2.70;;
21060;SDS011;10689;50.836;3.266;2022-11-04T06:05:21;4.97;;;2.80;;
21060;SDS011;10689;50.836;3.266;2022-11-04T06:07:47;4.10;;;2.60;;
21060;SDS011;10689;50.836;3.266;2022-11-04T06:10:13;5.27;;;2.33;;
21060;SDS011;10689;50.836;3.266;2022-11-04T06:12:38;5.53;;;2.33;;
21060;SDS011;10689;50.836;3.266;2022-11-04T06:15:04;6.60;;;2.50;;
21060;SDS011;10689;50.836;3.266;2022-11-04T06:17:30;5.83;;;2.57;;
21060;SDS011;10689;50.836;3.266;2022-11-04T06:19:56;6.60;;;2.53;;
21060;SDS011;10689;50.836;3.266;2022-11-04T06:22:23;8.70;;;2.63;;
21060;SDS011;10689;50.836;3.266;2022-11-04T06:24:49;5.80;;;3.17;;
21060;SDS011;10689;50.836;3.266;2022-11-04T06:27:15;8.50;;;2.90;;
21060;SDS011;10689;50.836;3.266;2022-11-04T06:29:40;6.60;;;2.80;;
21060;SDS011;10689;50.836;3.266;2022-11-04T06:32:07;5.50;;;3.00;;
21060;SDS011;10689;50.836;3.266;2022-11-04T06:34:37;5.20;;;2.20;;
21060;SDS011;10689;50.836;3.266;2022-11-04T06:37:04;8.67;;;2.60;;
21060;SDS011;10689;50.836;3.266;2022-11-04T06:39:30;6.90;;;2.73;;
21060;SDS011;10689;50.836;3.266;2022-11-04T06:41:56;6.63;;;2.73;;
21060;SDS011;10689;50.836;3.266;2022-11-04T06:44:21;4.97;;;2.83;;
21060;SDS011;10689;50.836;3.266;2022-11-04T06:46:48;4.33;;;2.33;;
21060;SDS011;10689;50.836;3.266;2022-11-04T06:49:17;6.20;;;3.07;;
21060;SDS011;10689;50.836;3.266;2022-11-04T06:51:45;4.83;;;2.30;;
21060;SDS011;10689;50.836;3.266;2022-11-04T06:54:11;3.23;;;2.40;;
21060;SDS011;10689;50.836;3.266;2022-11-04T06:56:38;6.90;;;3.37;;
21060;SDS011;10689;50.836;3.266;2022-11-04T06:59:04;6.77;;;2.87;;
21060;SDS011;10689;50.836;3.266;2022-11-04T07:01:31;5.73;;;2.97;;
21060;SDS011;10689;50.836;3.266;2022-11-04T07:03:59;8.07;;;3.10;;
21060;SDS011;10689;50.836;3.266;2022-11-04T07:06:25;8.53;;;3.27;;
21060;SDS011;10689;50.836;3.266;2022-11-04T07:08:52;8.40;;;3.73;;
21060;SDS011;10689;50.836;3.266;2022-11-04T07:11:21;7.77;;;3.30;;
21060;SDS011;10689;50.836;3.266;2022-11-04T07:13:47;7.37;;;2.93;;
21060;SDS011;10689;50.836;3.266;2022-11-04T07:16:13;7.90;;;4.40;;
21060;SDS011;10689;50.836;3.266;2022-11-04T07:18:40;7.83;;;3.10;;
21060;SDS011;10689;50.836;3.266;2022-11-04T07:21:07;6.67;;;3.13;;
21060;SDS011;10689;50.836;3.266;2022-11-04T07:23:33;6.20;;;3.63;;
21060;SDS011;10689;50.836;3.266;2022-11-04T07:26:00;7.17;;;3.83;;
21060;SDS011;10689;50.836;3.266;2022-11-04T07:28:26;5.20;;;3.77;;
21060;SDS011;10689;50.836;3.266;2022-11-04T07:30:54;10.63;;;4.37;;
21060;SDS011;10689;50.836;3.266;2022-11-04T07:33:21;10.57;;;4.37;;
21060;SDS011;10689;50.836;3.266;2022-11-04T07:35:47;7.33;;;4.17;;
21060;SDS011;10689;50.836;3.266;2022-11-04T07:38:13;8.40;;;3.93;;
21060;SDS011;10689;50.836;3.266;2022-11-04T07:40:38;9.50;;;4.33;;
21060;SDS011;10689;50.836;3.266;2022-11-04T07:43:04;9.00;;;4.53;;
21060;SDS011;10689;50.836;3.266;2022-11-04T07:45:31;8.40;;;4.07;;
21060;SDS011;10689;50.836;3.266;2022-11-04T07:47:56;13.23;;;4.27;;
21060;SDS011;10689;50.836;3.266;2022-11-04T07:50:22;10.93;;;4.25;;
21060;SDS011;10689;50.836;3.266;2022-11-04T07:52:48;8.83;;;3.67;;
21060;SDS011;10689;50.836;3.266;2022-11-04T07:55:15;11.03;;;4.33;;
21060;SDS011;10689;50.836;3.266;2022-11-04T07:57:44;12.27;;;3.63;;
21060;SDS011;10689;50.836;3.266;2022-11-04T08:00:11;9.40;;;4.63;;
21060;SDS011;10689;50.836;3.266;2022-11-04T08:02:39;8.82;;;3.85;;
21060;SDS011;10689;50.836;3.266;2022-11-04T08:05:06;7.67;;;4.43;;
21060;SDS011;10689;50.836;3.266;2022-11-04T08:07:32;6.73;;;3.97;;
21060;SDS011;10689;50.836;3.266;2022-11-04T08:09:58;12.83;;;4.10;;
21060;SDS011;10689;50.836;3.266;2022-11-04T08:12:24;9.87;;;4.40;;
21060;SDS011;10689;50.836;3.266;2022-11-04T08:14:51;7.73;;;4.33;;
21060;SDS011;10689;50.836;3.266;2022-11-04T08:17:17;7.23;;;4.10;;
21060;SDS011;10689;50.836;3.266;2022-11-04T08:19:43;9.63;;;4.17;;
21060;SDS011;10689;50.836;3.266;2022-11-04T08:22:09;8.97;;;3.50;;
21060;SDS011;10689;50.836;3.266;2022-11-04T08:24:34;9.73;;;3.37;;
21060;SDS011;10689;50.836;3.266;2022-11-04T08:27:01;7.97;;;3.67;;
21060;SDS011;10689;50.836;3.266;2022-11-04T08:29:28;7.82;;;3.83;;
21060;SDS011;10689;50.836;3.266;2022-11-04T08:31:54;8.63;;;3.13;;
21060;SDS011;10689;50.836;3.266;2022-11-04T08:34:20;12.45;;;4.07;;
21060;SDS011;10689;50.836;3.266;2022-11-04T08:36:45;10.23;;;3.60;;
21060;SDS011;10689;50.836;3.266;2022-11-04T08:39:12;9.50;;;3.90;;
21060;SDS011;10689;50.836;3.266;2022-11-04T08:41:39;6.20;;;3.85;;
21060;SDS011;10689;50.836;3.266;2022-11-04T08:44:07;6.97;;;3.57;;
21060;SDS011;10689;50.836;3.266;2022-11-04T08:46:34;7.63;;;4.03;;
21060;SDS011;10689;50.836;3.266;2022-11-04T08:49:02;8.23;;;3.80;;
21060;SDS011;10689;50.836;3.266;2022-11-04T08:51:28;9.20;;;3.77;;
21060;SDS011;10689;50.836;3.266;2022-11-04T08:53:55;9.93;;;4.03;;
21060;SDS011;10689;50.836;3.266;2022-11-04T08:56:25;9.43;;;3.30;;
21060;SDS011;10689;50.836;3.266;2022-11-04T08:59:10;8.03;;;3.10;;
21060;SDS011;10689;50.836;3.266;2022-11-04T09:01:36;11.80;;;3.70;;
21060;SDS011;10689;50.836;3.266;2022-11-04T09:04:03;8.27;;;3.23;;
21060;SDS011;10689;50.836;3.266;2022-11-04T09:06:30;4.93;;;2.75;;
21060;SDS011;10689;50.836;3.266;2022-11-04T09:08:59;6.53;;;3.57;;
21060;SDS011;10689;50.836;3.266;2022-11-04T09:11:29;9.00;;;3.83;;
21060;SDS011;10689;50.836;3.266;2022-11-04T09:14:02;8.95;;;4.22;;
21060;SDS011;10689;50.836;3.266;2022-11-04T09:16:29;13.88;;;4.43;;
21060;SDS011;10689;50.836;3.266;2022-11-04T09:18:56;7.90;;;4.13;;
21060;SDS011;10689;50.836;3.266;2022-11-04T09:21:22;11.93;;;3.53;;
21060;SDS011;10689;50.836;3.266;2022-11-04T09:23:49;6.33;;;3.23;;
21060;SDS011;10689;50.836;3.266;2022-11-04T09:26:15;12.82;;;4.22;;
21060;SDS011;10689;50.836;3.266;2022-11-04T09:28:41;8.38;;;3.78;;
21060;SDS011;10689;50.836;3.266;2022-11-04T09:31:08;12.33;;;4.03;;
21060;SDS011;10689;50.836;3.266;2022-11-04T09:33:36;9.17;;;4.93;;
21060;SDS011;10689;50.836;3.266;2022-11-04T09:36:02;9.02;;;5.60;;
21060;SDS011;10689;50.836;3.266;2022-11-04T09:38:28;7.83;;;4.60;;
21060;SDS011;10689;50.836;3.266;2022-11-04T09:40:55;10.40;;;5.18;;
21060;SDS011;10689;50.836;3.266;2022-11-04T09:46:12;8.43;;;5.23;;
21060;SDS011;10689;50.836;3.266;2022-11-04T09:48:46;10.17;;;5.53;;
21060;SDS011;10689;50.836;3.266;2022-11-04T09:51:15;6.93;;;4.20;;
21060;SDS011;10689;50.836;3.266;2022-11-04T09:53:44;10.00;;;4.50;;
21060;SDS011;10689;50.836;3.266;2022-11-04T09:58:39;8.38;;;5.45;;
21060;SDS011;10689;50.836;3.266;2022-11-04T10:01:14;9.27;;;4.80;;
21060;SDS011;10689;50.836;3.266;2022-11-04T10:06:33;8.95;;;5.07;;
21060;SDS011;10689;50.836;3.266;2022-11-04T10:09:13;6.38;;;4.70;;
21060;SDS011;10689;50.836;3.266;2022-11-04T10:11:57;12.30;;;6.13;;
21060;SDS011;10689;50.836;3.266;2022-11-04T10:15:29;7.78;;;5.70;;
21060;SDS011;10689;50.836;3.266;2022-11-04T10:21:23;10.38;;;6.57;;
21060;SDS011;10689;50.836;3.266;2022-11-04T10:23:38;8.68;;;6.03;;
21060;SDS011;10689;50.836;3.266;2022-11-04T10:48:12;8.35;;;6.32;;
21060;SDS011;10689;50.836;3.266;2022-11-04T10:50:50;9.20;;;6.90;;
21060;SDS011;10689;50.836;3.266;2022-11-04T10:53:19;10.10;;;7.22;;
21060;SDS011;10689;50.836;3.266;2022-11-04T10:58:26;10.33;;;7.07;;
21060;SDS011;10689;50.836;3.266;2022-11-04T11:00:55;8.33;;;6.90;;
21060;SDS011;10689;50.836;3.266;2022-11-04T11:03:23;8.20;;;6.83;;
21060;SDS011;10689;50.836;3.266;2022-11-04T11:05:50;11.10;;;7.43;;
21060;SDS011;10689;50.836;3.266;2022-11-04T11:08:33;11.03;;;7.20;;
21060;SDS011;10689;50.836;3.266;2022-11-04T11:11:01;10.70;;;6.30;;
21060;SDS011;10689;50.836;3.266;2022-11-04T11:13:33;11.87;;;7.13;;
21060;SDS011;10689;50.836;3.266;2022-11-04T11:16:05;10.97;;;7.63;;
21060;SDS011;10689;50.836;3.266;2022-11-04T11:21:56;14.70;;;8.68;;
21060;SDS011;10689;50.836;3.266;2022-11-04T11:24:23;10.83;;;7.80;;
21060;SDS011;10689;50.836;3.266;2022-11-04T11:26:51;12.65;;;7.90;;
21060;SDS011;10689;50.836;3.266;2022-11-04T11:29:23;11.25;;;7.45;;
21060;SDS011;10689;50.836;3.266;2022-11-04T11:31:55;9.50;;;7.65;;
21060;SDS011;10689;50.836;3.266;2022-11-04T11:34:24;9.60;;;6.38;;
21060;SDS011;10689;50.836;3.266;2022-11-04T11:36:54;10.57;;;6.30;;
21060;SDS011;10689;50.836;3.266;2022-11-04T11:39:30;7.07;;;5.32;;
21060;SDS011;10689;50.836;3.266;2022-11-04T11:47:03;7.43;;;3.72;;
21060;SDS011;10689;50.836;3.266;2022-11-04T11:49:34;9.65;;;3.70;;
21060;SDS011;10689;50.836;3.266;2022-11-04T11:54:46;3.20;;;2.90;;
21060;SDS011;10689;50.836;3.266;2022-11-04T12:00:16;4.45;;;2.53;;
21060;SDS011;10689;50.836;3.266;2022-11-04T12:05:12;5.05;;;2.97;;
21060;SDS011;10689;50.836;3.266;2022-11-04T12:22:13;7.60;;;3.45;;
21060;SDS011;10689;50.836;3.266;2022-11-04T12:27:31;2.67;;;1.90;;
21060;SDS011;10689;50.836;3.266;2022-11-04T12:40:24;2.17;;;1.40;;
21060;SDS011;10689;50.836;3.266;2022-11-04T12:45:31;1.77;;;1.40;;
21060;SDS011;10689;50.836;3.266;2022-11-04T12:48:09;2.30;;;1.40;;
21060;SDS011;10689;50.836;3.266;2022-11-04T12:56:13;3.03;;;1.80;;
21060;SDS011;10689;50.836;3.266;2022-11-04T12:59:04;4.20;;;1.52;;
21060;SDS011;10689;50.836;3.266;2022-11-04T13:01:49;1.65;;;1.55;;
21060;SDS011;10689;50.836;3.266;2022-11-04T13:04:38;2.28;;;1.65;;
21060;SDS011;10689;50.836;3.266;2022-11-04T13:07:21;4.88;;;1.55;;
21060;SDS011;10689;50.836;3.266;2022-11-04T13:10:04;2.22;;;1.77;;
21060;SDS011;10689;50.836;3.266;2022-11-04T13:12:40;1.48;;;1.38;;
21060;SDS011;10689;50.836;3.266;2022-11-04T13:17:52;1.70;;;1.60;;
21060;SDS011;10689;50.836;3.266;2022-11-04T13:23:21;3.13;;;1.73;;
21060;SDS011;10689;50.836;3.266;2022-11-04T13:25:52;2.10;;;1.48;;
21060;SDS011;10689;50.836;3.266;2022-11-04T13:28:19;4.00;;;2.17;;
21060;SDS011;10689;50.836;3.266;2022-11-04T13:38:53;2.60;;;1.42;;
21060;SDS011;10689;50.836;3.266;2022-11-04T13:41:26;2.95;;;0.80;;
21060;SDS011;10689;50.836;3.266;2022-11-04T13:44:16;1.92;;;0.95;;
21060;SDS011;10689;50.836;3.266;2022-11-04T13:46:54;1.63;;;0.82;;
21060;SDS011;10689;50.836;3.266;2022-11-04T13:49:27;0.75;;;0.70;;
21060;SDS011;10689;50.836;3.266;2022-11-04T13:52:00;2.60;;;0.70;;
21060;SDS011;10689;50.836;3.266;2022-11-04T13:57:25;1.42;;;0.93;;
21060;SDS011;10689;50.836;3.266;2022-11-04T14:02:46;3.03;;;1.35;;
21060;SDS011;10689;50.836;3.266;2022-11-04T14:10:44;0.82;;;0.70;;
21060;SDS011;10689;50.836;3.266;2022-11-04T14:16:36;3.92;;;1.20;;
21060;SDS011;10689;50.836;3.266;2022-11-04T14:18:48;2.38;;;0.88;;
21060;SDS011;10689;50.836;3.266;2022-11-04T14:21:17;1.65;;;1.13;;
21060;SDS011;10689;50.836;3.266;2022-11-04T14:23:46;2.40;;;1.00;;
21060;SDS011;10689;50.836;3.266;2022-11-04T14:26:18;0.95;;;0.80;;
21060;SDS011;10689;50.836;3.266;2022-11-04T14:29:01;3.33;;;1.02;;
21060;SDS011;10689;50.836;3.266;2022-11-04T14:31:35;1.85;;;0.90;;
21060;SDS011;10689;50.836;3.266;2022-11-04T14:34:06;2.08;;;0.70;;
21060;SDS011;10689;50.836;3.266;2022-11-04T14:36:47;1.80;;;1.08;;
21060;SDS011;10689;50.836;3.266;2022-11-04T14:39:29;2.22;;;1.02;;
21060;SDS011;10689;50.836;3.266;2022-11-04T14:42:02;2.22;;;1.20;;
21060;SDS011;10689;50.836;3.266;2022-11-04T14:57:45;2.33;;;0.90;;
21060;SDS011;10689;50.836;3.266;2022-11-04T15:05:39;1.48;;;1.27;;
21060;SDS011;10689;50.836;3.266;2022-11-04T15:08:30;4.18;;;1.58;;
21060;SDS011;10689;50.836;3.266;2022-11-04T15:10:59;2.58;;;1.08;;
21060;SDS011;10689;50.836;3.266;2022-11-04T15:13:34;1.88;;;1.25;;
21060;SDS011;10689;50.836;3.266;2022-11-04T15:16:03;4.10;;;1.30;;
21060;SDS011;10689;50.836;3.266;2022-11-04T15:18:37;2.65;;;1.48;;
21060;SDS011;10689;50.836;3.266;2022-11-04T15:21:04;4.95;;;2.33;;
21060;SDS011;10689;50.836;3.266;2022-11-04T15:23:41;3.67;;;1.80;;
21060;SDS011;10689;50.836;3.266;2022-11-04T15:26:18;2.78;;;1.95;;
21060;SDS011;10689;50.836;3.266;2022-11-04T15:28:45;2.95;;;1.90;;
21060;SDS011;10689;50.836;3.266;2022-11-04T15:31:14;4.00;;;1.60;;
21060;SDS011;10689;50.836;3.266;2022-11-04T15:33:45;3.60;;;1.63;;
21060;SDS011;10689;50.836;3.266;2022-11-04T15:36:18;4.85;;;2.10;;
21060;SDS011;10689;50.836;3.266;2022-11-04T15:38:48;6.10;;;1.83;;
21060;SDS011;10689;50.836;3.266;2022-11-04T15:41:17;4.30;;;2.58;;
21060;SDS011;10689;50.836;3.266;2022-11-04T15:44:04;3.33;;;1.70;;
21060;SDS011;10689;50.836;3.266;2022-11-04T15:46:38;3.35;;;2.00;;
21060;SDS011;10689;50.836;3.266;2022-11-04T15:49:04;4.63;;;2.22;;
21060;SDS011;10689;50.836;3.266;2022-11-04T15:51:38;3.58;;;1.90;;
21060;SDS011;10689;50.836;3.266;2022-11-04T15:56:51;6.47;;;1.83;;
21060;SDS011;10689;50.836;3.266;2022-11-04T16:01:54;4.90;;;2.47;;
21060;SDS011;10689;50.836;3.266;2022-11-04T16:04:21;4.60;;;2.55;;
21060;SDS011;10689;50.836;3.266;2022-11-04T16:07:05;6.68;;;3.28;;
21060;SDS011;10689;50.836;3.266;2022-11-04T16:09:53;5.50;;;2.60;;
21060;SDS011;10689;50.836;3.266;2022-11-04T16:14:51;3.50;;;2.78;;
21060;SDS011;10689;50.836;3.266;2022-11-04T16:17:18;5.03;;;2.92;;
21060;SDS011;10689;50.836;3.266;2022-11-04T16:19:48;6.75;;;3.15;;
21060;SDS011;10689;50.836;3.266;2022-11-04T16:22:21;4.13;;;2.50;;
21060;SDS011;10689;50.836;3.266;2022-11-04T16:24:54;4.70;;;2.33;;
21060;SDS011;10689;50.836;3.266;2022-11-04T16:27:21;6.30;;;4.25;;
21060;SDS011;10689;50.836;3.266;2022-11-04T16:29:58;5.13;;;2.40;;
21060;SDS011;10689;50.836;3.266;2022-11-04T16:32:25;9.40;;;4.00;;
21060;SDS011;10689;50.836;3.266;2022-11-04T16:35:04;5.45;;;2.78;;
21060;SDS011;10689;50.836;3.266;2022-11-04T16:37:37;4.23;;;3.07;;
21060;SDS011;10689;50.836;3.266;2022-11-04T16:40:03;6.03;;;2.97;;
21060;SDS011;10689;50.836;3.266;2022-11-04T16:42:31;12.05;;;2.65;;
21060;SDS011;10689;50.836;3.266;2022-11-04T16:44:58;10.00;;;6.38;;
21060;SDS011;10689;50.836;3.266;2022-11-04T16:47:26;12.18;;;3.42;;
21060;SDS011;10689;50.836;3.266;2022-11-04T16:49:57;5.55;;;2.42;;
21060;SDS011;10689;50.836;3.266;2022-11-04T16:52:24;5.07;;;2.90;;
21060;SDS011;10689;50.836;3.266;2022-11-04T16:54:50;6.67;;;3.60;;
21060;SDS011;10689;50.836;3.266;2022-11-04T16:57:16;6.20;;;4.20;;
21060;SDS011;10689;50.836;3.266;2022-11-04T16:59:42;4.30;;;3.30;;
21060;SDS011;10689;50.836;3.266;2022-11-04T17:04:56;6.10;;;2.60;;
21060;SDS011;10689;50.836;3.266;2022-11-04T17:07:22;3.80;;;2.47;;
21060;SDS011;10689;50.836;3.266;2022-11-04T17:09:48;4.57;;;2.67;;
21060;SDS011;10689;50.836;3.266;2022-11-04T17:12:14;4.43;;;3.00;;
21060;SDS011;10689;50.836;3.266;2022-11-04T17:14:40;9.40;;;3.87;;
21060;SDS011;10689;50.836;3.266;2022-11-04T17:17:06;8.37;;;3.90;;
21060;SDS011;10689;50.836;3.266;2022-11-04T17:19:32;7.03;;;3.37;;
21060;SDS011;10689;50.836;3.266;2022-11-04T17:21:58;4.90;;;2.70;;
21060;SDS011;10689;50.836;3.266;2022-11-04T17:24:27;7.83;;;4.07;;
21060;SDS011;10689;50.836;3.266;2022-11-04T17:26:53;7.37;;;3.13;;
21060;SDS011;10689;50.836;3.266;2022-11-04T17:29:19;7.17;;;3.60;;
21060;SDS011;10689;50.836;3.266;2022-11-04T17:31:44;6.63;;;3.07;;
21060;SDS011;10689;50.836;3.266;2022-11-04T17:34:10;5.40;;;3.43;;
21060;SDS011;10689;50.836;3.266;2022-11-04T17:36:36;7.43;;;4.57;;
21060;SDS011;10689;50.836;3.266;2022-11-04T17:39:02;7.63;;;4.87;;
21060;SDS011;10689;50.836;3.266;2022-11-04T17:41:27;7.83;;;4.90;;
21060;SDS011;10689;50.836;3.266;2022-11-04T17:44:12;9.30;;;6.13;;
21060;SDS011;10689;50.836;3.266;2022-11-04T17:46:37;9.97;;;5.60;;
21060;SDS011;10689;50.836;3.266;2022-11-04T17:49:10;10.00;;;6.10;;
21060;SDS011;10689;50.836;3.266;2022-11-04T17:51:48;9.93;;;5.57;;
21060;SDS011;10689;50.836;3.266;2022-11-04T17:54:22;12.60;;;5.60;;
21060;SDS011;10689;50.836;3.266;2022-11-04T17:56:49;6.00;;;4.47;;
21060;SDS011;10689;50.836;3.266;2022-11-04T17:59:15;7.33;;;4.63;;
21060;SDS011;10689;50.836;3.266;2022-11-04T18:01:42;6.87;;;4.30;;
21060;SDS011;10689;50.836;3.266;2022-11-04T18:04:17;11.20;;;5.27;;
21060;SDS011;10689;50.836;3.266;2022-11-04T18:06:47;6.30;;;4.73;;
21060;SDS011;10689;50.836;3.266;2022-11-04T18:09:14;8.00;;;4.53;;